sensor_id;sensor_type;location;lat;lon;timestamp;P1;durP1;ratioP1;P2;durP2;ratioP2
45686;SDS011;31399;51.176;7.776;2023-08-12T01:52:18;36.58;;;20.35;;
45686;SDS011;31399;51.176;7.776;2023-08-12T01:54:45;36.30;;;21.00;;
45686;SDS011;31399;51.176;7.776;2023-08-12T01:57:12;34.08;;;20.85;;
45686;SDS011;31399;51.176;7.776;2023-08-12T01:59:39;43.30;;;24.75;;
45686;SDS011;31399;51.176;7.776;2023-08-12T02:02:06;32.03;;;20.65;;
45686;SDS011;31399;51.176;7.776;2023-08-12T02:04:33;31.73;;;19.88;;
45686;SDS011;31399;51.176;7.776;2023-08-12T02:07:00;32.97;;;18.67;;
45686;SDS011;31399;51.176;7.776;2023-08-12T02:09:26;30.95;;;17.30;;
45686;SDS011;31399;51.176;7.776;2023-08-12T02:11:53;58.35;;;21.45;;
45686;SDS011;31399;51.176;7.776;2023-08-12T02:14:20;24.67;;;16.20;;
45686;SDS011;31399;51.176;7.776;2023-08-12T02:16:46;30.35;;;18.63;;
45686;SDS011;31399;51.176;7.776;2023-08-12T02:19:13;34.03;;;20.38;;
45686;SDS011;31399;51.176;7.776;2023-08-12T02:21:40;25.73;;;16.15;;
45686;SDS011;31399;51.176;7.776;2023-08-12T02:24:08;35.33;;;20.05;;
45686;SDS011;31399;51.176;7.776;2023-08-12T02:26:35;37.55;;;19.85;;
45686;SDS011;31399;51.176;7.776;2023-08-12T03:53:23;51.22;;;10.18;;
45686;SDS011;31399;51.176;7.776;2023-08-12T03:55:49;12.23;;;8.65;;
45686;SDS011;31399;51.176;7.776;2023-08-12T03:58:16;29.55;;;8.82;;
45686;SDS011;31399;51.176;7.776;2023-08-12T04:00:49;82.57;;;11.48;;
45686;SDS011;31399;51.176;7.776;2023-08-12T04:03:16;14.10;;;7.78;;
45686;SDS011;31399;51.176;7.776;2023-08-12T04:05:52;11.05;;;6.15;;
45686;SDS011;31399;51.176;7.776;2023-08-12T04:08:19;10.00;;;5.88;;
45686;SDS011;31399;51.176;7.776;2023-08-12T04:10:47;9.48;;;6.00;;
45686;SDS011;31399;51.176;7.776;2023-08-12T04:13:14;7.75;;;4.88;;
45686;SDS011;31399;51.176;7.776;2023-08-12T04:15:41;8.13;;;5.30;;
45686;SDS011;31399;51.176;7.776;2023-08-12T04:40:18;96.95;;;9.55;;
45686;SDS011;31399;51.176;7.776;2023-08-12T04:42:45;26.70;;;5.63;;
45686;SDS011;31399;51.176;7.776;2023-08-12T04:45:11;6.25;;;4.28;;
45686;SDS011;31399;51.176;7.776;2023-08-12T04:47:39;6.07;;;4.50;;
45686;SDS011;31399;51.176;7.776;2023-08-12T04:50:05;5.55;;;4.60;;
45686;SDS011;31399;51.176;7.776;2023-08-12T04:52:32;5.55;;;4.18;;
45686;SDS011;31399;51.176;7.776;2023-08-12T04:54:59;4.65;;;3.90;;
45686;SDS011;31399;51.176;7.776;2023-08-12T04:57:26;7.35;;;4.40;;
45686;SDS011;31399;51.176;7.776;2023-08-12T04:59:53;4.78;;;3.83;;
45686;SDS011;31399;51.176;7.776;2023-08-12T05:02:20;5.55;;;4.05;;
45686;SDS011;31399;51.176;7.776;2023-08-12T05:04:48;3.78;;;3.40;;
45686;SDS011;31399;51.176;7.776;2023-08-12T05:07:16;4.50;;;3.50;;
45686;SDS011;31399;51.176;7.776;2023-08-12T05:09:43;3.50;;;3.20;;
45686;SDS011;31399;51.176;7.776;2023-08-12T05:12:10;3.15;;;2.83;;
45686;SDS011;31399;51.176;7.776;2023-08-12T05:14:39;4.85;;;2.70;;
45686;SDS011;31399;51.176;7.776;2023-08-12T05:17:06;3.35;;;2.47;;
45686;SDS011;31399;51.176;7.776;2023-08-12T05:19:32;3.15;;;2.50;;
45686;SDS011;31399;51.176;7.776;2023-08-12T05:21:59;3.25;;;2.58;;
45686;SDS011;31399;51.176;7.776;2023-08-12T05:24:25;8.93;;;2.60;;
45686;SDS011;31399;51.176;7.776;2023-08-12T05:26:52;3.42;;;3.03;;
45686;SDS011;31399;51.176;7.776;2023-08-12T05:29:19;5.75;;;3.00;;
45686;SDS011;31399;51.176;7.776;2023-08-12T05:31:45;3.55;;;3.08;;
45686;SDS011;31399;51.176;7.776;2023-08-12T05:34:12;5.78;;;3.28;;
45686;SDS011;31399;51.176;7.776;2023-08-12T05:36:39;4.97;;;3.67;;
45686;SDS011;31399;51.176;7.776;2023-08-12T05:39:05;5.38;;;3.58;;
45686;SDS011;31399;51.176;7.776;2023-08-12T05:41:32;3.75;;;3.17;;
45686;SDS011;31399;51.176;7.776;2023-08-12T05:43:58;5.55;;;3.40;;
45686;SDS011;31399;51.176;7.776;2023-08-12T05:46:25;6.20;;;3.45;;
45686;SDS011;31399;51.176;7.776;2023-08-12T05:48:52;5.53;;;3.47;;
45686;SDS011;31399;51.176;7.776;2023-08-12T05:51:18;9.05;;;3.85;;
45686;SDS011;31399;51.176;7.776;2023-08-12T05:53:45;6.45;;;3.22;;
45686;SDS011;31399;51.176;7.776;2023-08-12T05:56:11;9.68;;;2.90;;
45686;SDS011;31399;51.176;7.776;2023-08-12T05:58:38;4.38;;;3.00;;
45686;SDS011;31399;51.176;7.776;2023-08-12T06:01:05;3.83;;;3.17;;
45686;SDS011;31399;51.176;7.776;2023-08-12T06:03:32;5.43;;;3.50;;
45686;SDS011;31399;51.176;7.776;2023-08-12T06:05:58;4.15;;;2.83;;
45686;SDS011;31399;51.176;7.776;2023-08-12T06:08:25;4.68;;;2.95;;
45686;SDS011;31399;51.176;7.776;2023-08-12T06:10:52;6.93;;;2.92;;
45686;SDS011;31399;51.176;7.776;2023-08-12T06:13:20;3.45;;;2.70;;
45686;SDS011;31399;51.176;7.776;2023-08-12T06:15:47;2.97;;;2.40;;
45686;SDS011;31399;51.176;7.776;2023-08-12T06:18:14;5.97;;;2.42;;
45686;SDS011;31399;51.176;7.776;2023-08-12T06:20:40;2.92;;;2.50;;
45686;SDS011;31399;51.176;7.776;2023-08-12T06:23:07;2.35;;;2.10;;
45686;SDS011;31399;51.176;7.776;2023-08-12T06:25:33;3.38;;;2.30;;
45686;SDS011;31399;51.176;7.776;2023-08-12T06:28:02;3.35;;;1.90;;
45686;SDS011;31399;51.176;7.776;2023-08-12T06:30:30;3.60;;;1.70;;
45686;SDS011;31399;51.176;7.776;2023-08-12T06:32:57;5.07;;;2.35;;
45686;SDS011;31399;51.176;7.776;2023-08-12T06:35:24;2.60;;;1.95;;
45686;SDS011;31399;51.176;7.776;2023-08-12T06:37:50;4.93;;;2.35;;
45686;SDS011;31399;51.176;7.776;2023-08-12T06:40:17;3.13;;;1.80;;
45686;SDS011;31399;51.176;7.776;2023-08-12T06:42:43;3.17;;;2.28;;
45686;SDS011;31399;51.176;7.776;2023-08-12T06:45:10;3.03;;;1.60;;
45686;SDS011;31399;51.176;7.776;2023-08-12T06:47:37;2.10;;;1.55;;
45686;SDS011;31399;51.176;7.776;2023-08-12T06:50:04;3.58;;;2.00;;
45686;SDS011;31399;51.176;7.776;2023-08-12T06:52:31;3.10;;;1.90;;
45686;SDS011;31399;51.176;7.776;2023-08-12T06:54:57;3.25;;;2.00;;
45686;SDS011;31399;51.176;7.776;2023-08-12T06:57:24;3.90;;;1.70;;
45686;SDS011;31399;51.176;7.776;2023-08-12T06:59:50;2.53;;;2.05;;
45686;SDS011;31399;51.176;7.776;2023-08-12T07:02:17;3.00;;;1.80;;
45686;SDS011;31399;51.176;7.776;2023-08-12T07:04:44;4.10;;;2.08;;
45686;SDS011;31399;51.176;7.776;2023-08-12T07:07:10;5.82;;;1.83;;
45686;SDS011;31399;51.176;7.776;2023-08-12T07:09:37;5.38;;;2.22;;
45686;SDS011;31399;51.176;7.776;2023-08-12T07:12:03;6.05;;;2.20;;
45686;SDS011;31399;51.176;7.776;2023-08-12T07:14:30;2.58;;;2.35;;
45686;SDS011;31399;51.176;7.776;2023-08-12T07:16:57;2.30;;;2.00;;
45686;SDS011;31399;51.176;7.776;2023-08-12T07:19:24;3.47;;;2.60;;
45686;SDS011;31399;51.176;7.776;2023-08-12T07:21:50;4.25;;;2.50;;
45686;SDS011;31399;51.176;7.776;2023-08-12T07:24:17;3.63;;;2.33;;
45686;SDS011;31399;51.176;7.776;2023-08-12T07:26:44;5.20;;;2.58;;
45686;SDS011;31399;51.176;7.776;2023-08-12T07:29:10;3.58;;;2.30;;
45686;SDS011;31399;51.176;7.776;2023-08-12T07:31:37;3.63;;;1.88;;
45686;SDS011;31399;51.176;7.776;2023-08-12T07:34:04;3.20;;;2.10;;
45686;SDS011;31399;51.176;7.776;2023-08-12T07:36:31;2.08;;;1.80;;
45686;SDS011;31399;51.176;7.776;2023-08-12T07:38:59;4.53;;;2.13;;
45686;SDS011;31399;51.176;7.776;2023-08-12T07:41:25;3.05;;;2.00;;
45686;SDS011;31399;51.176;7.776;2023-08-12T07:43:54;4.05;;;1.90;;
45686;SDS011;31399;51.176;7.776;2023-08-12T07:46:20;2.38;;;1.92;;
45686;SDS011;31399;51.176;7.776;2023-08-12T07:48:47;4.22;;;2.67;;
45686;SDS011;31399;51.176;7.776;2023-08-12T07:51:14;4.20;;;1.90;;
45686;SDS011;31399;51.176;7.776;2023-08-12T07:53:41;3.65;;;2.08;;
45686;SDS011;31399;51.176;7.776;2023-08-12T07:56:07;3.05;;;2.10;;
45686;SDS011;31399;51.176;7.776;2023-08-12T07:58:34;3.20;;;2.00;;
45686;SDS011;31399;51.176;7.776;2023-08-12T08:01:01;4.25;;;2.08;;
45686;SDS011;31399;51.176;7.776;2023-08-12T08:03:28;2.75;;;1.90;;
45686;SDS011;31399;51.176;7.776;2023-08-12T08:05:55;2.80;;;1.60;;
45686;SDS011;31399;51.176;7.776;2023-08-12T08:08:21;2.55;;;1.70;;
45686;SDS011;31399;51.176;7.776;2023-08-12T08:10:48;5.65;;;1.80;;
45686;SDS011;31399;51.176;7.776;2023-08-12T08:13:15;2.10;;;1.67;;
45686;SDS011;31399;51.176;7.776;2023-08-12T08:15:41;1.92;;;1.65;;
45686;SDS011;31399;51.176;7.776;2023-08-12T08:18:08;4.40;;;1.83;;
45686;SDS011;31399;51.176;7.776;2023-08-12T08:20:34;4.28;;;1.63;;
45686;SDS011;31399;51.176;7.776;2023-08-12T08:23:01;4.25;;;1.60;;
45686;SDS011;31399;51.176;7.776;2023-08-12T08:25:28;2.20;;;1.50;;
45686;SDS011;31399;51.176;7.776;2023-08-12T08:27:54;3.33;;;1.42;;
45686;SDS011;31399;51.176;7.776;2023-08-12T08:30:21;2.53;;;1.20;;
45686;SDS011;31399;51.176;7.776;2023-08-12T08:32:49;1.52;;;1.42;;
45686;SDS011;31399;51.176;7.776;2023-08-12T08:35:15;1.83;;;1.08;;
45686;SDS011;31399;51.176;7.776;2023-08-12T08:37:42;2.28;;;1.15;;
45686;SDS011;31399;51.176;7.776;2023-08-12T08:40:10;1.30;;;0.95;;
45686;SDS011;31399;51.176;7.776;2023-08-12T08:42:37;2.38;;;1.20;;
45686;SDS011;31399;51.176;7.776;2023-08-12T08:45:04;2.03;;;1.08;;
45686;SDS011;31399;51.176;7.776;2023-08-12T08:47:36;4.85;;;1.10;;
45686;SDS011;31399;51.176;7.776;2023-08-12T08:50:03;1.60;;;0.80;;
45686;SDS011;31399;51.176;7.776;2023-08-12T08:52:30;1.20;;;0.82;;
45686;SDS011;31399;51.176;7.776;2023-08-12T08:54:58;2.40;;;0.85;;
45686;SDS011;31399;51.176;7.776;2023-08-12T08:57:28;2.75;;;0.82;;
45686;SDS011;31399;51.176;7.776;2023-08-12T09:00:04;1.20;;;0.90;;
45686;SDS011;31399;51.176;7.776;2023-08-12T09:02:40;0.88;;;0.60;;
45686;SDS011;31399;51.176;7.776;2023-08-12T09:05:07;0.82;;;0.50;;
45686;SDS011;31399;51.176;7.776;2023-08-12T09:07:34;0.93;;;0.70;;
45686;SDS011;31399;51.176;7.776;2023-08-12T09:10:01;2.22;;;0.70;;
45686;SDS011;31399;51.176;7.776;2023-08-12T09:12:30;1.15;;;0.60;;
45686;SDS011;31399;51.176;7.776;2023-08-12T09:14:57;0.85;;;0.57;;
45686;SDS011;31399;51.176;7.776;2023-08-12T09:17:25;0.65;;;0.43;;
45686;SDS011;31399;51.176;7.776;2023-08-12T09:19:51;0.98;;;0.50;;
45686;SDS011;31399;51.176;7.776;2023-08-12T09:22:18;0.60;;;0.40;;
45686;SDS011;31399;51.176;7.776;2023-08-12T09:24:45;1.10;;;0.55;;
45686;SDS011;31399;51.176;7.776;2023-08-12T09:27:11;0.98;;;0.70;;
45686;SDS011;31399;51.176;7.776;2023-08-12T09:29:38;2.25;;;0.60;;
45686;SDS011;31399;51.176;7.776;2023-08-12T09:32:11;1.10;;;0.47;;
45686;SDS011;31399;51.176;7.776;2023-08-12T09:34:50;0.93;;;0.60;;
45686;SDS011;31399;51.176;7.776;2023-08-12T09:37:18;1.13;;;0.50;;
45686;SDS011;31399;51.176;7.776;2023-08-12T09:39:46;0.85;;;0.57;;
45686;SDS011;31399;51.176;7.776;2023-08-12T09:42:14;1.52;;;0.60;;
45686;SDS011;31399;51.176;7.776;2023-08-12T09:44:42;1.33;;;0.47;;
45686;SDS011;31399;51.176;7.776;2023-08-12T09:47:09;1.25;;;0.75;;
45686;SDS011;31399;51.176;7.776;2023-08-12T09:49:36;1.77;;;0.70;;
45686;SDS011;31399;51.176;7.776;2023-08-12T09:52:03;1.60;;;0.70;;
45686;SDS011;31399;51.176;7.776;2023-08-12T09:54:31;1.25;;;0.75;;
45686;SDS011;31399;51.176;7.776;2023-08-12T09:56:59;1.60;;;0.73;;
45686;SDS011;31399;51.176;7.776;2023-08-12T09:59:33;1.20;;;0.60;;
45686;SDS011;31399;51.176;7.776;2023-08-12T10:02:02;2.67;;;0.73;;
45686;SDS011;31399;51.176;7.776;2023-08-12T10:04:37;3.42;;;0.70;;
45686;SDS011;31399;51.176;7.776;2023-08-12T10:07:09;1.92;;;0.80;;
45686;SDS011;31399;51.176;7.776;2023-08-12T10:09:36;1.70;;;0.82;;
45686;SDS011;31399;51.176;7.776;2023-08-12T10:12:04;1.15;;;0.80;;
45686;SDS011;31399;51.176;7.776;2023-08-12T10:14:32;1.83;;;0.80;;
45686;SDS011;31399;51.176;7.776;2023-08-12T10:16:59;2.20;;;0.73;;
45686;SDS011;31399;51.176;7.776;2023-08-12T10:19:31;0.98;;;0.70;;
45686;SDS011;31399;51.176;7.776;2023-08-12T10:21:58;0.60;;;0.60;;
45686;SDS011;31399;51.176;7.776;2023-08-12T10:24:26;2.80;;;0.60;;
45686;SDS011;31399;51.176;7.776;2023-08-12T10:26:53;1.85;;;0.65;;
45686;SDS011;31399;51.176;7.776;2023-08-12T10:29:20;0.75;;;0.50;;
45686;SDS011;31399;51.176;7.776;2023-08-12T10:31:49;1.73;;;0.63;;
45686;SDS011;31399;51.176;7.776;2023-08-12T10:36:56;1.40;;;0.80;;
45686;SDS011;31399;51.176;7.776;2023-08-12T10:39:31;1.33;;;1.00;;
45686;SDS011;31399;51.176;7.776;2023-08-12T10:41:58;1.30;;;1.05;;
45686;SDS011;31399;51.176;7.776;2023-08-12T10:44:38;0.93;;;0.50;;
45686;SDS011;31399;51.176;7.776;2023-08-12T10:47:10;0.73;;;0.43;;
45686;SDS011;31399;51.176;7.776;2023-08-12T10:49:44;1.00;;;0.60;;
45686;SDS011;31399;51.176;7.776;2023-08-12T10:52:27;0.90;;;0.50;;
45686;SDS011;31399;51.176;7.776;2023-08-12T10:54:55;1.45;;;0.70;;
45686;SDS011;31399;51.176;7.776;2023-08-12T10:57:37;2.13;;;0.70;;
45686;SDS011;31399;51.176;7.776;2023-08-12T11:00:05;3.13;;;0.60;;
45686;SDS011;31399;51.176;7.776;2023-08-12T11:02:33;1.58;;;0.60;;
45686;SDS011;31399;51.176;7.776;2023-08-12T11:05:01;1.40;;;0.68;;
45686;SDS011;31399;51.176;7.776;2023-08-12T11:07:34;3.75;;;0.90;;
45686;SDS011;31399;51.176;7.776;2023-08-12T11:10:24;0.95;;;0.60;;
45686;SDS011;31399;51.176;7.776;2023-08-12T11:15:30;3.75;;;0.98;;
45686;SDS011;31399;51.176;7.776;2023-08-12T11:18:04;2.10;;;0.50;;
45686;SDS011;31399;51.176;7.776;2023-08-12T11:20:32;0.80;;;0.60;;
45686;SDS011;31399;51.176;7.776;2023-08-12T11:22:59;1.83;;;0.73;;
45686;SDS011;31399;51.176;7.776;2023-08-12T11:25:30;2.15;;;0.70;;
45686;SDS011;31399;51.176;7.776;2023-08-12T11:30:24;1.98;;;0.73;;
45686;SDS011;31399;51.176;7.776;2023-08-12T11:32:53;0.95;;;0.77;;
45686;SDS011;31399;51.176;7.776;2023-08-12T11:35:20;2.60;;;1.00;;
45686;SDS011;31399;51.176;7.776;2023-08-12T11:37:49;1.35;;;0.60;;
45686;SDS011;31399;51.176;7.776;2023-08-12T11:40:16;1.20;;;0.73;;
45686;SDS011;31399;51.176;7.776;2023-08-12T11:42:44;3.63;;;0.70;;
45686;SDS011;31399;51.176;7.776;2023-08-12T11:45:12;0.80;;;0.60;;
45686;SDS011;31399;51.176;7.776;2023-08-12T11:47:46;1.58;;;0.77;;
45686;SDS011;31399;51.176;7.776;2023-08-12T11:50:22;0.65;;;0.60;;
45686;SDS011;31399;51.176;7.776;2023-08-12T11:52:49;2.67;;;0.70;;
45686;SDS011;31399;51.176;7.776;2023-08-12T11:55:16;1.13;;;0.85;;
45686;SDS011;31399;51.176;7.776;2023-08-12T11:57:44;1.98;;;0.65;;
45686;SDS011;31399;51.176;7.776;2023-08-12T12:00:11;1.55;;;0.98;;
45686;SDS011;31399;51.176;7.776;2023-08-12T12:02:49;3.80;;;0.60;;
45686;SDS011;31399;51.176;7.776;2023-08-12T12:05:17;1.30;;;0.70;;
45686;SDS011;31399;51.176;7.776;2023-08-12T12:07:49;1.15;;;0.77;;
45686;SDS011;31399;51.176;7.776;2023-08-12T12:10:19;3.40;;;0.88;;
45686;SDS011;31399;51.176;7.776;2023-08-12T12:12:48;2.25;;;0.88;;
45686;SDS011;31399;51.176;7.776;2023-08-12T12:15:14;2.00;;;0.75;;
45686;SDS011;31399;51.176;7.776;2023-08-12T12:17:42;1.38;;;0.68;;
45686;SDS011;31399;51.176;7.776;2023-08-12T12:20:12;1.80;;;0.80;;
45686;SDS011;31399;51.176;7.776;2023-08-12T12:22:41;1.85;;;0.63;;
45686;SDS011;31399;51.176;7.776;2023-08-12T12:25:10;5.13;;;0.90;;
45686;SDS011;31399;51.176;7.776;2023-08-12T12:27:43;2.33;;;1.10;;
45686;SDS011;31399;51.176;7.776;2023-08-12T12:30:12;1.27;;;0.73;;
45686;SDS011;31399;51.176;7.776;2023-08-12T12:32:39;3.50;;;0.70;;
45686;SDS011;31399;51.176;7.776;2023-08-12T12:35:06;2.10;;;0.88;;
45686;SDS011;31399;51.176;7.776;2023-08-12T12:37:34;2.28;;;0.93;;
45686;SDS011;31399;51.176;7.776;2023-08-12T12:40:00;2.22;;;1.02;;
45686;SDS011;31399;51.176;7.776;2023-08-12T12:42:29;2.47;;;0.68;;
45686;SDS011;31399;51.176;7.776;2023-08-12T12:44:56;0.90;;;0.73;;
45686;SDS011;31399;51.176;7.776;2023-08-12T12:47:23;2.33;;;0.70;;
45686;SDS011;31399;51.176;7.776;2023-08-12T12:49:50;3.65;;;0.80;;
45686;SDS011;31399;51.176;7.776;2023-08-12T12:52:17;2.13;;;1.00;;
45686;SDS011;31399;51.176;7.776;2023-08-12T12:54:43;0.95;;;0.85;;
45686;SDS011;31399;51.176;7.776;2023-08-12T12:57:10;1.50;;;0.60;;
45686;SDS011;31399;51.176;7.776;2023-08-12T12:59:36;2.70;;;1.02;;
45686;SDS011;31399;51.176;7.776;2023-08-12T13:02:03;1.10;;;0.80;;
45686;SDS011;31399;51.176;7.776;2023-08-12T13:04:30;1.02;;;0.82;;
45686;SDS011;31399;51.176;7.776;2023-08-12T13:06:56;1.17;;;0.77;;
45686;SDS011;31399;51.176;7.776;2023-08-12T13:09:23;2.42;;;0.85;;
45686;SDS011;31399;51.176;7.776;2023-08-12T13:11:50;2.70;;;0.82;;
45686;SDS011;31399;51.176;7.776;2023-08-12T13:14:16;3.05;;;1.38;;
45686;SDS011;31399;51.176;7.776;2023-08-12T13:16:47;3.80;;;1.02;;
45686;SDS011;31399;51.176;7.776;2023-08-12T13:19:14;3.17;;;0.85;;
45686;SDS011;31399;51.176;7.776;2023-08-12T13:21:41;1.13;;;0.70;;
45686;SDS011;31399;51.176;7.776;2023-08-12T13:24:07;2.53;;;0.85;;
45686;SDS011;31399;51.176;7.776;2023-08-12T13:26:34;2.97;;;1.10;;
45686;SDS011;31399;51.176;7.776;2023-08-12T13:29:00;4.90;;;0.90;;
45686;SDS011;31399;51.176;7.776;2023-08-12T13:31:27;1.88;;;0.80;;
45686;SDS011;31399;51.176;7.776;2023-08-12T13:33:54;1.00;;;0.88;;
45686;SDS011;31399;51.176;7.776;2023-08-12T13:36:20;1.77;;;0.93;;
45686;SDS011;31399;51.176;7.776;2023-08-12T13:38:47;1.42;;;0.82;;
45686;SDS011;31399;51.176;7.776;2023-08-12T13:41:14;1.33;;;1.05;;
45686;SDS011;31399;51.176;7.776;2023-08-12T13:43:40;2.67;;;0.80;;
45686;SDS011;31399;51.176;7.776;2023-08-12T13:46:07;1.25;;;1.00;;
45686;SDS011;31399;51.176;7.776;2023-08-12T13:48:33;1.25;;;1.00;;
45686;SDS011;31399;51.176;7.776;2023-08-12T13:51:00;1.77;;;0.80;;
45686;SDS011;31399;51.176;7.776;2023-08-12T13:53:27;1.77;;;0.80;;
45686;SDS011;31399;51.176;7.776;2023-08-12T13:55:54;2.38;;;1.00;;
45686;SDS011;31399;51.176;7.776;2023-08-12T13:58:20;1.73;;;1.02;;
45686;SDS011;31399;51.176;7.776;2023-08-12T14:00:47;2.72;;;0.68;;
45686;SDS011;31399;51.176;7.776;2023-08-12T14:03:14;2.97;;;0.70;;
45686;SDS011;31399;51.176;7.776;2023-08-12T14:05:41;1.20;;;0.70;;
45686;SDS011;31399;51.176;7.776;2023-08-12T14:08:08;2.58;;;0.90;;
45686;SDS011;31399;51.176;7.776;2023-08-12T14:10:35;1.25;;;0.63;;
45686;SDS011;31399;51.176;7.776;2023-08-12T14:13:01;1.10;;;0.77;;
45686;SDS011;31399;51.176;7.776;2023-08-12T14:15:28;4.45;;;0.68;;
45686;SDS011;31399;51.176;7.776;2023-08-12T14:17:55;2.80;;;0.60;;
45686;SDS011;31399;51.176;7.776;2023-08-12T14:20:21;2.45;;;0.80;;
45686;SDS011;31399;51.176;7.776;2023-08-12T14:22:48;1.23;;;0.90;;
45686;SDS011;31399;51.176;7.776;2023-08-12T14:25:14;1.10;;;0.85;;
45686;SDS011;31399;51.176;7.776;2023-08-12T14:27:41;1.35;;;0.70;;
45686;SDS011;31399;51.176;7.776;2023-08-12T14:30:08;1.02;;;0.60;;
45686;SDS011;31399;51.176;7.776;2023-08-12T14:32:35;3.03;;;0.60;;
45686;SDS011;31399;51.176;7.776;2023-08-12T14:35:02;0.90;;;0.60;;
45686;SDS011;31399;51.176;7.776;2023-08-12T14:37:29;2.25;;;0.88;;
45686;SDS011;31399;51.176;7.776;2023-08-12T14:39:56;3.70;;;0.90;;
45686;SDS011;31399;51.176;7.776;2023-08-12T14:42:23;16.13;;;2.05;;
45686;SDS011;31399;51.176;7.776;2023-08-12T14:44:49;2.55;;;1.30;;
45686;SDS011;31399;51.176;7.776;2023-08-12T14:47:16;2.47;;;0.73;;
45686;SDS011;31399;51.176;7.776;2023-08-12T14:49:42;0.63;;;0.45;;
45686;SDS011;31399;51.176;7.776;2023-08-12T14:52:16;0.75;;;0.60;;
45686;SDS011;31399;51.176;7.776;2023-08-12T14:54:43;0.90;;;0.20;;
45686;SDS011;31399;51.176;7.776;2023-08-12T14:57:10;0.73;;;0.50;;
45686;SDS011;31399;51.176;7.776;2023-08-12T14:59:37;1.17;;;0.50;;
45686;SDS011;31399;51.176;7.776;2023-08-12T15:02:04;0.65;;;0.38;;
45686;SDS011;31399;51.176;7.776;2023-08-12T15:04:31;1.75;;;0.40;;
45686;SDS011;31399;51.176;7.776;2023-08-12T15:06:58;0.40;;;0.20;;
45686;SDS011;31399;51.176;7.776;2023-08-12T15:09:25;0.45;;;0.40;;
45686;SDS011;31399;51.176;7.776;2023-08-12T15:11:52;0.75;;;0.30;;
45686;SDS011;31399;51.176;7.776;2023-08-12T15:14:18;0.52;;;0.40;;
45686;SDS011;31399;51.176;7.776;2023-08-12T15:16:45;1.77;;;0.40;;
45686;SDS011;31399;51.176;7.776;2023-08-12T15:19:11;1.60;;;0.30;;
45686;SDS011;31399;51.176;7.776;2023-08-12T15:21:38;1.35;;;0.55;;
45686;SDS011;31399;51.176;7.776;2023-08-12T15:24:05;0.50;;;0.38;;
45686;SDS011;31399;51.176;7.776;2023-08-12T15:26:32;1.13;;;0.50;;
45686;SDS011;31399;51.176;7.776;2023-08-12T15:28:59;1.08;;;0.30;;
45686;SDS011;31399;51.176;7.776;2023-08-12T15:31:25;0.63;;;0.40;;
45686;SDS011;31399;51.176;7.776;2023-08-12T15:33:52;2.80;;;0.50;;
45686;SDS011;31399;51.176;7.776;2023-08-12T15:36:19;0.75;;;0.43;;
45686;SDS011;31399;51.176;7.776;2023-08-12T15:38:46;1.15;;;0.52;;
45686;SDS011;31399;51.176;7.776;2023-08-12T15:41:14;0.95;;;0.47;;
45686;SDS011;31399;51.176;7.776;2023-08-12T15:43:41;0.50;;;0.40;;
45686;SDS011;31399;51.176;7.776;2023-08-12T15:46:08;1.00;;;0.70;;
45686;SDS011;31399;51.176;7.776;2023-08-12T15:48:35;0.70;;;0.45;;
45686;SDS011;31399;51.176;7.776;2023-08-12T15:51:02;0.85;;;0.55;;
45686;SDS011;31399;51.176;7.776;2023-08-12T15:53:28;0.50;;;0.40;;
45686;SDS011;31399;51.176;7.776;2023-08-12T15:55:55;1.55;;;0.93;;
45686;SDS011;31399;51.176;7.776;2023-08-12T15:58:22;2.83;;;0.50;;
45686;SDS011;31399;51.176;7.776;2023-08-12T16:00:50;0.90;;;0.60;;
45686;SDS011;31399;51.176;7.776;2023-08-12T16:03:18;1.35;;;0.70;;
45686;SDS011;31399;51.176;7.776;2023-08-12T16:05:46;0.73;;;0.52;;
45686;SDS011;31399;51.176;7.776;2023-08-12T16:08:13;2.65;;;0.70;;
45686;SDS011;31399;51.176;7.776;2023-08-12T16:10:40;0.80;;;0.60;;
45686;SDS011;31399;51.176;7.776;2023-08-12T16:13:07;0.60;;;0.50;;
45686;SDS011;31399;51.176;7.776;2023-08-12T16:15:33;1.25;;;0.85;;
45686;SDS011;31399;51.176;7.776;2023-08-12T16:18:00;2.28;;;0.75;;
45686;SDS011;31399;51.176;7.776;2023-08-12T16:20:26;1.15;;;0.70;;
45686;SDS011;31399;51.176;7.776;2023-08-12T16:22:53;4.00;;;0.70;;
45686;SDS011;31399;51.176;7.776;2023-08-12T16:25:20;0.63;;;0.50;;
45686;SDS011;31399;51.176;7.776;2023-08-12T16:27:46;1.33;;;0.70;;
45686;SDS011;31399;51.176;7.776;2023-08-12T16:30:13;0.57;;;0.47;;
45686;SDS011;31399;51.176;7.776;2023-08-12T16:32:40;1.27;;;0.50;;
45686;SDS011;31399;51.176;7.776;2023-08-12T16:35:06;1.45;;;0.68;;
45686;SDS011;31399;51.176;7.776;2023-08-12T16:37:34;1.55;;;0.50;;
45686;SDS011;31399;51.176;7.776;2023-08-12T16:40:01;1.10;;;0.85;;
45686;SDS011;31399;51.176;7.776;2023-08-12T16:42:27;1.83;;;0.52;;
45686;SDS011;31399;51.176;7.776;2023-08-12T16:44:54;0.68;;;0.63;;
45686;SDS011;31399;51.176;7.776;2023-08-12T16:47:21;0.77;;;0.52;;
45686;SDS011;31399;51.176;7.776;2023-08-12T16:49:47;1.48;;;0.50;;
45686;SDS011;31399;51.176;7.776;2023-08-12T16:52:14;3.95;;;0.50;;
45686;SDS011;31399;51.176;7.776;2023-08-12T16:54:41;0.90;;;0.60;;
45686;SDS011;31399;51.176;7.776;2023-08-12T16:57:08;3.10;;;0.60;;
45686;SDS011;31399;51.176;7.776;2023-08-12T16:59:34;0.77;;;0.40;;
45686;SDS011;31399;51.176;7.776;2023-08-12T17:02:01;0.55;;;0.40;;
45686;SDS011;31399;51.176;7.776;2023-08-12T17:04:28;1.65;;;0.60;;
45686;SDS011;31399;51.176;7.776;2023-08-12T17:06:55;1.05;;;0.50;;
45686;SDS011;31399;51.176;7.776;2023-08-12T17:09:22;3.53;;;0.63;;
45686;SDS011;31399;51.176;7.776;2023-08-12T17:11:48;1.25;;;0.40;;
45686;SDS011;31399;51.176;7.776;2023-08-12T17:14:15;0.98;;;0.32;;
45686;SDS011;31399;51.176;7.776;2023-08-12T17:16:41;1.48;;;0.57;;
45686;SDS011;31399;51.176;7.776;2023-08-12T17:19:08;6.60;;;0.60;;
45686;SDS011;31399;51.176;7.776;2023-08-12T17:21:35;0.93;;;0.65;;
45686;SDS011;31399;51.176;7.776;2023-08-12T17:24:01;0.82;;;0.60;;
45686;SDS011;31399;51.176;7.776;2023-08-12T17:26:29;3.15;;;0.70;;
45686;SDS011;31399;51.176;7.776;2023-08-12T17:28:55;1.33;;;0.65;;
45686;SDS011;31399;51.176;7.776;2023-08-12T17:31:22;3.03;;;0.60;;
45686;SDS011;31399;51.176;7.776;2023-08-12T17:33:49;1.33;;;0.50;;
45686;SDS011;31399;51.176;7.776;2023-08-12T17:36:15;1.13;;;0.55;;
45686;SDS011;31399;51.176;7.776;2023-08-12T17:38:42;7.93;;;1.45;;
45686;SDS011;31399;51.176;7.776;2023-08-12T17:41:09;2.22;;;0.60;;
45686;SDS011;31399;51.176;7.776;2023-08-12T17:43:36;1.65;;;0.60;;
45686;SDS011;31399;51.176;7.776;2023-08-12T17:46:03;1.75;;;0.50;;
45686;SDS011;31399;51.176;7.776;2023-08-12T17:48:30;2.10;;;0.80;;
45686;SDS011;31399;51.176;7.776;2023-08-12T17:50:57;3.28;;;0.60;;
45686;SDS011;31399;51.176;7.776;2023-08-12T17:53:24;0.80;;;0.60;;
45686;SDS011;31399;51.176;7.776;2023-08-12T17:55:51;3.33;;;0.63;;
45686;SDS011;31399;51.176;7.776;2023-08-12T17:58:17;4.80;;;0.70;;
45686;SDS011;31399;51.176;7.776;2023-08-12T18:00:44;1.45;;;0.70;;
45686;SDS011;31399;51.176;7.776;2023-08-12T18:03:11;1.30;;;0.90;;
45686;SDS011;31399;51.176;7.776;2023-08-12T18:05:37;2.42;;;0.68;;
45686;SDS011;31399;51.176;7.776;2023-08-12T18:08:04;3.72;;;1.05;;
45686;SDS011;31399;51.176;7.776;2023-08-12T18:10:31;1.75;;;0.57;;
45686;SDS011;31399;51.176;7.776;2023-08-12T18:12:58;0.90;;;0.60;;
45686;SDS011;31399;51.176;7.776;2023-08-12T18:15:25;3.25;;;0.60;;
45686;SDS011;31399;51.176;7.776;2023-08-12T18:17:54;3.47;;;1.13;;
45686;SDS011;31399;51.176;7.776;2023-08-12T18:20:21;1.00;;;0.68;;
45686;SDS011;31399;51.176;7.776;2023-08-12T18:22:49;1.33;;;0.75;;
45686;SDS011;31399;51.176;7.776;2023-08-12T18:25:16;2.05;;;0.63;;
45686;SDS011;31399;51.176;7.776;2023-08-12T18:27:43;2.75;;;0.70;;
45686;SDS011;31399;51.176;7.776;2023-08-12T18:30:12;2.90;;;0.93;;
45686;SDS011;31399;51.176;7.776;2023-08-12T18:32:39;2.53;;;0.90;;